sensor_id;sensor_type;location;lat;lon;timestamp;pressure;altitude;pressure_sealevel;temperature;humidity
16194;BME280;8204;53.582;10.080;2023-07-20T00:00:00;100186.75;;;17.22;100.00
16194;BME280;8204;53.582;10.080;2023-07-20T00:02:26;100173.72;;;17.20;100.00
16194;BME280;8204;53.582;10.080;2023-07-20T00:04:51;100160.47;;;17.20;100.00
16194;BME280;8204;53.582;10.080;2023-07-20T00:07:17;100145.41;;;17.21;100.00
16194;BME280;8204;53.582;10.080;2023-07-20T00:09:42;100142.53;;;17.22;100.00
16194;BME280;8204;53.582;10.080;2023-07-20T00:12:08;100127.47;;;17.23;100.00
16194;BME280;8204;53.582;10.080;2023-07-20T00:14:34;100118.69;;;17.22;100.00
16194;BME280;8204;53.582;10.080;2023-07-20T00:16:59;100113.19;;;17.24;100.00
16194;BME280;8204;53.582;10.080;2023-07-20T00:19:27;100110.56;;;17.24;100.00
16194;BME280;8204;53.582;10.080;2023-07-20T00:21:54;100114.59;;;17.26;100.00
16194;BME280;8204;53.582;10.080;2023-07-20T00:24:20;100107.25;;;17.28;100.00
16194;BME280;8204;53.582;10.080;2023-07-20T00:26:46;100128.44;;;17.28;100.00
16194;BME280;8204;53.582;10.080;2023-07-20T00:29:11;100145.97;;;17.29;100.00
16194;BME280;8204;53.582;10.080;2023-07-20T00:31:37;100139.88;;;17.29;100.00
16194;BME280;8204;53.582;10.080;2023-07-20T00:34:04;100116.25;;;17.27;100.00
16194;BME280;8204;53.582;10.080;2023-07-20T00:36:29;100146.56;;;17.31;100.00
16194;BME280;8204;53.582;10.080;2023-07-20T00:38:56;100132.53;;;17.31;100.00
16194;BME280;8204;53.582;10.080;2023-07-20T00:41:21;100124.59;;;17.31;100.00
16194;BME280;8204;53.582;10.080;2023-07-20T00:43:47;100125.16;;;17.33;100.00
16194;BME280;8204;53.582;10.080;2023-07-20T00:46:13;100127.63;;;17.34;100.00
16194;BME280;8204;53.582;10.080;2023-07-20T00:48:39;100140.84;;;17.34;100.00
16194;BME280;8204;53.582;10.080;2023-07-20T00:51:06;100129.66;;;17.32;100.00
16194;BME280;8204;53.582;10.080;2023-07-20T00:53:32;100126.00;;;17.33;100.00
16194;BME280;8204;53.582;10.080;2023-07-20T00:55:57;100156.13;;;17.32;100.00
16194;BME280;8204;53.582;10.080;2023-07-20T00:58:23;100168.78;;;17.30;100.00
16194;BME280;8204;53.582;10.080;2023-07-20T01:00:49;100156.94;;;17.33;100.00
16194;BME280;8204;53.582;10.080;2023-07-20T01:03:15;100133.97;;;17.27;100.00
16194;BME280;8204;53.582;10.080;2023-07-20T01:05:48;100079.56;;;17.24;100.00
16194;BME280;8204;53.582;10.080;2023-07-20T01:08:24;100063.91;;;17.23;100.00
16194;BME280;8204;53.582;10.080;2023-07-20T01:10:58;100036.03;;;17.20;100.00
16194;BME280;8204;53.582;10.080;2023-07-20T01:13:25;100024.25;;;17.16;100.00
16194;BME280;8204;53.582;10.080;2023-07-20T01:15:56;100014.09;;;17.13;100.00
16194;BME280;8204;53.582;10.080;2023-07-20T01:18:24;99995.19;;;17.10;100.00
16194;BME280;8204;53.582;10.080;2023-07-20T01:20:50;99981.59;;;17.06;100.00
16194;BME280;8204;53.582;10.080;2023-07-20T01:26:26;99907.50;;;17.00;100.00
16194;BME280;8204;53.582;10.080;2023-07-20T01:29:21;99855.03;;;16.97;100.00
16194;BME280;8204;53.582;10.080;2023-07-20T01:31:50;99806.19;;;16.93;100.00
16194;BME280;8204;53.582;10.080;2023-07-20T01:34:18;99784.47;;;16.91;100.00
16194;BME280;8204;53.582;10.080;2023-07-20T01:36:45;99781.44;;;16.87;100.00
16194;BME280;8204;53.582;10.080;2023-07-20T01:39:11;99730.81;;;16.84;100.00
16194;BME280;8204;53.582;10.080;2023-07-20T01:41:38;99707.78;;;16.84;100.00
16194;BME280;8204;53.582;10.080;2023-07-20T01:44:04;99673.63;;;16.83;100.00
16194;BME280;8204;53.582;10.080;2023-07-20T01:46:30;99672.00;;;16.82;100.00
16194;BME280;8204;53.582;10.080;2023-07-20T01:48:57;99644.50;;;16.83;100.00
16194;BME280;8204;53.582;10.080;2023-07-20T01:51:23;99638.41;;;16.82;100.00
16194;BME280;8204;53.582;10.080;2023-07-20T01:53:49;99639.00;;;16.84;100.00
16194;BME280;8204;53.582;10.080;2023-07-20T01:56:15;99638.19;;;16.84;100.00
16194;BME280;8204;53.582;10.080;2023-07-20T01:58:40;99641.63;;;16.84;100.00
16194;BME280;8204;53.582;10.080;2023-07-20T02:01:06;99654.88;;;16.84;100.00
16194;BME280;8204;53.582;10.080;2023-07-20T02:03:32;99666.28;;;16.85;100.00
16194;BME280;8204;53.582;10.080;2023-07-20T02:05:57;99637.38;;;16.83;100.00
16194;BME280;8204;53.582;10.080;2023-07-20T02:08:23;99620.47;;;16.84;100.00
16194;BME280;8204;53.582;10.080;2023-07-20T02:10:49;99610.47;;;16.86;100.00
16194;BME280;8204;53.582;10.080;2023-07-20T02:13:15;99597.84;;;16.88;100.00
16194;BME280;8204;53.582;10.080;2023-07-20T02:15:43;99626.13;;;16.88;100.00
16194;BME280;8204;53.582;10.080;2023-07-20T02:18:10;99645.47;;;16.88;100.00
16194;BME280;8204;53.582;10.080;2023-07-20T02:20:36;99636.94;;;16.86;100.00
16194;BME280;8204;53.582;10.080;2023-07-20T02:23:02;99632.44;;;16.87;100.00
16194;BME280;8204;53.582;10.080;2023-07-20T02:25:27;99637.72;;;16.87;100.00
16194;BME280;8204;53.582;10.080;2023-07-20T02:27:52;99635.09;;;16.87;100.00
16194;BME280;8204;53.582;10.080;2023-07-20T02:30:18;99655.47;;;16.86;100.00
16194;BME280;8204;53.582;10.080;2023-07-20T02:32:43;99643.25;;;16.85;100.00
16194;BME280;8204;53.582;10.080;2023-07-20T02:35:15;99635.56;;;16.84;100.00
16194;BME280;8204;53.582;10.080;2023-07-20T02:37:41;99634.97;;;16.82;100.00
16194;BME280;8204;53.582;10.080;2023-07-20T02:40:07;99637.84;;;16.81;100.00
16194;BME280;8204;53.582;10.080;2023-07-20T02:42:33;99629.91;;;16.81;100.00
16194;BME280;8204;53.582;10.080;2023-07-20T02:44:59;99620.34;;;16.80;100.00
16194;BME280;8204;53.582;10.080;2023-07-20T02:47:24;99614.03;;;16.81;100.00
16194;BME280;8204;53.582;10.080;2023-07-20T02:49:50;99615.06;;;16.80;100.00
16194;BME280;8204;53.582;10.080;2023-07-20T02:52:16;99611.81;;;16.78;100.00
16194;BME280;8204;53.582;10.080;2023-07-20T02:54:42;99625.28;;;16.76;100.00
16194;BME280;8204;53.582;10.080;2023-07-20T02:57:08;99622.88;;;16.75;100.00
16194;BME280;8204;53.582;10.080;2023-07-20T02:59:34;99611.69;;;16.73;100.00
16194;BME280;8204;53.582;10.080;2023-07-20T03:01:59;99612.72;;;16.72;100.00
16194;BME280;8204;53.582;10.080;2023-07-20T03:04:26;99601.34;;;16.71;100.00
16194;BME280;8204;53.582;10.080;2023-07-20T03:06:52;99595.22;;;16.71;100.00
16194;BME280;8204;53.582;10.080;2023-07-20T03:09:18;99594.19;;;16.72;100.00
16194;BME280;8204;53.582;10.080;2023-07-20T03:11:44;99605.81;;;16.71;100.00
16194;BME280;8204;53.582;10.080;2023-07-20T03:14:10;99591.78;;;16.70;100.00
16194;BME280;8204;53.582;10.080;2023-07-20T03:16:36;99625.34;;;16.70;100.00
16194;BME280;8204;53.582;10.080;2023-07-20T03:19:02;99631.69;;;16.69;100.00
16194;BME280;8204;53.582;10.080;2023-07-20T03:21:28;99628.22;;;16.68;100.00
16194;BME280;8204;53.582;10.080;2023-07-20T03:23:54;99636.41;;;16.67;100.00
16194;BME280;8204;53.582;10.080;2023-07-20T03:26:19;99632.38;;;16.64;100.00
16194;BME280;8204;53.582;10.080;2023-07-20T03:28:44;99640.50;;;16.63;100.00
16194;BME280;8204;53.582;10.080;2023-07-20T03:31:10;99647.66;;;16.62;100.00
16194;BME280;8204;53.582;10.080;2023-07-20T03:33:36;99650.75;;;16.59;100.00
16194;BME280;8204;53.582;10.080;2023-07-20T03:36:01;99657.28;;;16.57;100.00
16194;BME280;8204;53.582;10.080;2023-07-20T03:38:27;99645.09;;;16.56;100.00
16194;BME280;8204;53.582;10.080;2023-07-20T03:40:54;99613.38;;;16.56;100.00
16194;BME280;8204;53.582;10.080;2023-07-20T03:43:24;99609.66;;;16.57;100.00
16194;BME280;8204;53.582;10.080;2023-07-20T03:45:50;99596.66;;;16.55;100.00
16194;BME280;8204;53.582;10.080;2023-07-20T03:48:19;99586.91;;;16.56;100.00
16194;BME280;8204;53.582;10.080;2023-07-20T03:50:45;99596.66;;;16.55;100.00
16194;BME280;8204;53.582;10.080;2023-07-20T03:53:12;99607.47;;;16.54;100.00
16194;BME280;8204;53.582;10.080;2023-07-20T03:55:37;99619.69;;;16.55;100.00
16194;BME280;8204;53.582;10.080;2023-07-20T03:58:03;99609.09;;;16.55;100.00
16194;BME280;8204;53.582;10.080;2023-07-20T04:00:29;99630.25;;;16.55;100.00
16194;BME280;8204;53.582;10.080;2023-07-20T04:02:55;99636.09;;;16.57;100.00
16194;BME280;8204;53.582;10.080;2023-07-20T04:05:21;99651.97;;;16.57;100.00
16194;BME280;8204;53.582;10.080;2023-07-20T04:07:46;99635.69;;;16.60;100.00
16194;BME280;8204;53.582;10.080;2023-07-20T04:10:12;99644.63;;;16.59;100.00
16194;BME280;8204;53.582;10.080;2023-07-20T04:12:38;99656.84;;;16.60;100.00
16194;BME280;8204;53.582;10.080;2023-07-20T04:15:04;99642.00;;;16.59;100.00
16194;BME280;8204;53.582;10.080;2023-07-20T04:17:30;99653.41;;;16.59;100.00
16194;BME280;8204;53.582;10.080;2023-07-20T04:19:56;99662.13;;;16.60;100.00
16194;BME280;8204;53.582;10.080;2023-07-20T04:22:22;99660.28;;;16.60;100.00
16194;BME280;8204;53.582;10.080;2023-07-20T04:24:48;99637.31;;;16.61;100.00
16194;BME280;8204;53.582;10.080;2023-07-20T04:27:14;99628.34;;;16.62;100.00
16194;BME280;8204;53.582;10.080;2023-07-20T04:29:40;99631.53;;;16.64;100.00
16194;BME280;8204;53.582;10.080;2023-07-20T04:32:06;99628.47;;;16.67;100.00
16194;BME280;8204;53.582;10.080;2023-07-20T04:34:32;99634.34;;;16.69;100.00
16194;BME280;8204;53.582;10.080;2023-07-20T04:36:57;99653.44;;;16.71;100.00
16194;BME280;8204;53.582;10.080;2023-07-20T04:39:23;99650.78;;;16.71;100.00
16194;BME280;8204;53.582;10.080;2023-07-20T04:41:49;99645.28;;;16.72;100.00
16194;BME280;8204;53.582;10.080;2023-07-20T04:44:15;99639.78;;;16.74;100.00
16194;BME280;8204;53.582;10.080;2023-07-20T04:46:41;99650.91;;;16.76;100.00
16194;BME280;8204;53.582;10.080;2023-07-20T04:49:07;99641.94;;;16.77;100.00
16194;BME280;8204;53.582;10.080;2023-07-20T04:51:32;99642.53;;;16.79;100.00
16194;BME280;8204;53.582;10.080;2023-07-20T04:53:58;99642.31;;;16.80;100.00
16194;BME280;8204;53.582;10.080;2023-07-20T04:56:24;99666.72;;;16.82;100.00
16194;BME280;8204;53.582;10.080;2023-07-20T04:58:50;99647.97;;;16.83;100.00
16194;BME280;8204;53.582;10.080;2023-07-20T05:01:16;99628.41;;;16.84;100.00
16194;BME280;8204;53.582;10.080;2023-07-20T05:03:41;99627.97;;;16.87;100.00
16194;BME280;8204;53.582;10.080;2023-07-20T05:06:07;99627.75;;;16.89;100.00
16194;BME280;8204;53.582;10.080;2023-07-20T05:08:32;99638.91;;;16.91;100.00
16194;BME280;8204;53.582;10.080;2023-07-20T05:10:59;99653.53;;;16.93;100.00
16194;BME280;8204;53.582;10.080;2023-07-20T05:13:25;99674.72;;;16.93;100.00
16194;BME280;8204;53.582;10.080;2023-07-20T05:15:54;99667.78;;;16.92;100.00
16194;BME280;8204;53.582;10.080;2023-07-20T05:18:19;99663.28;;;16.93;100.00
16194;BME280;8204;53.582;10.080;2023-07-20T05:20:46;99657.78;;;16.94;100.00
16194;BME280;8204;53.582;10.080;2023-07-20T05:23:12;99675.50;;;16.94;100.00
16194;BME280;8204;53.582;10.080;2023-07-20T05:25:38;99704.84;;;16.92;100.00
16194;BME280;8204;53.582;10.080;2023-07-20T05:28:04;99708.88;;;16.95;100.00
16194;BME280;8204;53.582;10.080;2023-07-20T05:30:29;99708.28;;;16.93;100.00
16194;BME280;8204;53.582;10.080;2023-07-20T05:32:56;99719.47;;;16.95;100.00
16194;BME280;8204;53.582;10.080;2023-07-20T05:35:22;99712.91;;;16.97;100.00
16194;BME280;8204;53.582;10.080;2023-07-20T05:37:47;99707.19;;;17.00;100.00
16194;BME280;8204;53.582;10.080;2023-07-20T05:40:14;99722.59;;;17.03;100.00
16194;BME280;8204;53.582;10.080;2023-07-20T05:42:45;99716.50;;;17.03;100.00
16194;BME280;8204;53.582;10.080;2023-07-20T05:45:12;99744.38;;;17.05;100.00
16194;BME280;8204;53.582;10.080;2023-07-20T05:47:38;99741.72;;;17.05;100.00
16194;BME280;8204;53.582;10.080;2023-07-20T05:50:03;99735.97;;;17.08;100.00
16194;BME280;8204;53.582;10.080;2023-07-20T05:52:29;99768.31;;;17.10;100.00
16194;BME280;8204;53.582;10.080;2023-07-20T05:54:56;99784.56;;;17.14;100.00
16194;BME280;8204;53.582;10.080;2023-07-20T05:57:21;99799.78;;;17.18;100.00
16194;BME280;8204;53.582;10.080;2023-07-20T05:59:47;99804.63;;;17.21;100.00
16194;BME280;8204;53.582;10.080;2023-07-20T06:02:12;99802.34;;;17.25;100.00
16194;BME280;8204;53.582;10.080;2023-07-20T06:04:39;99788.47;;;17.29;100.00
16194;BME280;8204;53.582;10.080;2023-07-20T06:07:05;99770.09;;;17.34;100.00
16194;BME280;8204;53.582;10.080;2023-07-20T06:09:33;99796.91;;;17.38;100.00
16194;BME280;8204;53.582;10.080;2023-07-20T06:11:58;99806.81;;;17.42;100.00
16194;BME280;8204;53.582;10.080;2023-07-20T06:14:24;99819.41;;;17.47;100.00
16194;BME280;8204;53.582;10.080;2023-07-20T06:16:50;99873.75;;;17.49;100.00
16194;BME280;8204;53.582;10.080;2023-07-20T06:19:15;99910.41;;;17.52;100.00
16194;BME280;8204;53.582;10.080;2023-07-20T06:21:41;99906.03;;;17.57;100.00
16194;BME280;8204;53.582;10.080;2023-07-20T06:24:07;99912.31;;;17.63;100.00
16194;BME280;8204;53.582;10.080;2023-07-20T06:26:33;99922.25;;;17.67;100.00
16194;BME280;8204;53.582;10.080;2023-07-20T06:29:05;99947.03;;;17.73;100.00
16194;BME280;8204;53.582;10.080;2023-07-20T06:31:32;100013.44;;;17.78;100.00
16194;BME280;8204;53.582;10.080;2023-07-20T06:33:58;100048.03;;;17.83;100.00
16194;BME280;8204;53.582;10.080;2023-07-20T06:36:23;100073.03;;;17.87;100.00
16194;BME280;8204;53.582;10.080;2023-07-20T06:38:51;100081.59;;;17.89;100.00
16194;BME280;8204;53.582;10.080;2023-07-20T06:41:17;100076.91;;;17.91;100.00
16194;BME280;8204;53.582;10.080;2023-07-20T06:43:43;100091.97;;;17.90;100.00
16194;BME280;8204;53.582;10.080;2023-07-20T06:46:09;100145.44;;;17.87;100.00
16194;BME280;8204;53.582;10.080;2023-07-20T06:48:35;100158.47;;;17.89;100.00
16194;BME280;8204;53.582;10.080;2023-07-20T06:51:01;100170.06;;;17.94;100.00
16194;BME280;8204;53.582;10.080;2023-07-20T06:53:26;100164.28;;;17.97;100.00
16194;BME280;8204;53.582;10.080;2023-07-20T06:55:52;100145.06;;;18.02;100.00
16194;BME280;8204;53.582;10.080;2023-07-20T06:58:18;100112.97;;;18.10;100.00
16194;BME280;8204;53.582;10.080;2023-07-20T07:00:44;100197.75;;;18.16;100.00
16194;BME280;8204;53.582;10.080;2023-07-20T07:03:11;100220.56;;;18.24;100.00
16194;BME280;8204;53.582;10.080;2023-07-20T07:05:36;100260.50;;;18.29;100.00
16194;BME280;8204;53.582;10.080;2023-07-20T07:08:06;100287.16;;;18.33;100.00
16194;BME280;8204;53.582;10.080;2023-07-20T07:10:32;100313.94;;;18.32;100.00
16194;BME280;8204;53.582;10.080;2023-07-20T07:12:58;100328.22;;;18.31;100.00
16194;BME280;8204;53.582;10.080;2023-07-20T07:15:24;100319.84;;;18.34;100.00
16194;BME280;8204;53.582;10.080;2023-07-20T07:17:50;100356.75;;;18.35;100.00
16194;BME280;8204;53.582;10.080;2023-07-20T07:20:16;100358.00;;;18.33;100.00
16194;BME280;8204;53.582;10.080;2023-07-20T07:22:42;100449.63;;;18.29;100.00
16194;BME280;8204;53.582;10.080;2023-07-20T07:25:09;100446.41;;;18.27;100.00
16194;BME280;8204;53.582;10.080;2023-07-20T07:27:35;100442.94;;;18.27;100.00
16194;BME280;8204;53.582;10.080;2023-07-20T07:30:02;100478.63;;;18.31;100.00
16194;BME280;8204;53.582;10.080;2023-07-20T07:32:28;100505.09;;;18.37;100.00
16194;BME280;8204;53.582;10.080;2023-07-20T07:34:54;100543.25;;;18.42;100.00
16194;BME280;8204;53.582;10.080;2023-07-20T07:37:21;100594.81;;;18.53;100.00
16194;BME280;8204;53.582;10.080;2023-07-20T07:39:47;100578.44;;;18.62;100.00
16194;BME280;8204;53.582;10.080;2023-07-20T07:42:15;100567.72;;;18.75;100.00
16194;BME280;8204;53.582;10.080;2023-07-20T07:44:41;100623.81;;;18.85;100.00
16194;BME280;8204;53.582;10.080;2023-07-20T07:47:07;100659.53;;;18.89;100.00
16194;BME280;8204;53.582;10.080;2023-07-20T07:49:33;100585.03;;;18.84;100.00
16194;BME280;8204;53.582;10.080;2023-07-20T07:51:58;100383.13;;;18.73;100.00
16194;BME280;8204;53.582;10.080;2023-07-20T07:54:24;100324.94;;;18.53;100.00
16194;BME280;8204;53.582;10.080;2023-07-20T07:56:50;100369.03;;;18.30;100.00
16194;BME280;8204;53.582;10.080;2023-07-20T07:59:16;100381.41;;;18.12;100.00
16194;BME280;8204;53.582;10.080;2023-07-20T08:01:42;100399.63;;;18.02;100.00
16194;BME280;8204;53.582;10.080;2023-07-20T08:04:07;100307.25;;;17.99;100.00
16194;BME280;8204;53.582;10.080;2023-07-20T08:06:33;100319.91;;;17.97;100.00
16194;BME280;8204;53.582;10.080;2023-07-20T08:09:00;100344.38;;;17.99;100.00
16194;BME280;8204;53.582;10.080;2023-07-20T08:11:27;100292.91;;;18.06;100.00
16194;BME280;8204;53.582;10.080;2023-07-20T08:13:52;100305.06;;;18.20;100.00
16194;BME280;8204;53.582;10.080;2023-07-20T08:16:18;100299.63;;;18.33;100.00
16194;BME280;8204;53.582;10.080;2023-07-20T08:18:44;100407.75;;;18.37;100.00
16194;BME280;8204;53.582;10.080;2023-07-20T08:21:10;100559.19;;;18.36;100.00
16194;BME280;8204;53.582;10.080;2023-07-20T08:23:36;100585.13;;;18.34;100.00
16194;BME280;8204;53.582;10.080;2023-07-20T08:26:02;100575.31;;;18.34;100.00
16194;BME280;8204;53.582;10.080;2023-07-20T08:28:28;100579.19;;;18.38;100.00
16194;BME280;8204;53.582;10.080;2023-07-20T08:30:54;100617.38;;;18.37;100.00
16194;BME280;8204;53.582;10.080;2023-07-20T08:33:19;100593.88;;;18.41;100.00
16194;BME280;8204;53.582;10.080;2023-07-20T08:35:46;100568.69;;;18.50;100.00
16194;BME280;8204;53.582;10.080;2023-07-20T08:38:11;100542.91;;;18.63;100.00
16194;BME280;8204;53.582;10.080;2023-07-20T08:40:42;100600.56;;;18.81;100.00
16194;BME280;8204;53.582;10.080;2023-07-20T08:43:13;100661.75;;;18.92;100.00
16194;BME280;8204;53.582;10.080;2023-07-20T08:45:40;100628.16;;;19.04;100.00
16194;BME280;8204;53.582;10.080;2023-07-20T08:48:07;100693.13;;;19.08;100.00
16194;BME280;8204;53.582;10.080;2023-07-20T08:50:34;100674.88;;;19.18;100.00
16194;BME280;8204;53.582;10.080;2023-07-20T08:53:00;100653.75;;;19.29;100.00
16194;BME280;8204;53.582;10.080;2023-07-20T08:55:27;100710.94;;;19.38;100.00
16194;BME280;8204;53.582;10.080;2023-07-20T08:57:54;100816.00;;;19.41;100.00
16194;BME280;8204;53.582;10.080;2023-07-20T09:00:21;100802.25;;;19.44;100.00
16194;BME280;8204;53.582;10.080;2023-07-20T09:02:50;100635.69;;;19.38;100.00
16194;BME280;8204;53.582;10.080;2023-07-20T09:05:18;100549.38;;;19.22;100.00
16194;BME280;8204;53.582;10.080;2023-07-20T09:07:43;100486.78;;;19.08;100.00
16194;BME280;8204;53.582;10.080;2023-07-20T09:10:10;100450.13;;;18.93;100.00
16194;BME280;8204;53.582;10.080;2023-07-20T09:12:43;100393.03;;;18.84;100.00
16194;BME280;8204;53.582;10.080;2023-07-20T09:15:10;100404.75;;;18.76;100.00
16194;BME280;8204;53.582;10.080;2023-07-20T09:17:36;100366.19;;;18.74;100.00
16194;BME280;8204;53.582;10.080;2023-07-20T09:20:07;100391.09;;;18.73;100.00
16194;BME280;8204;53.582;10.080;2023-07-20T09:22:37;100407.19;;;18.78;100.00
16194;BME280;8204;53.582;10.080;2023-07-20T09:25:11;100482.50;;;18.83;100.00
16194;BME280;8204;53.582;10.080;2023-07-20T09:27:55;100591.91;;;18.92;100.00
16194;BME280;8204;53.582;10.080;2023-07-20T09:30:24;100588.13;;;19.05;100.00
16194;BME280;8204;53.582;10.080;2023-07-20T09:32:50;100676.75;;;19.17;100.00
16194;BME280;8204;53.582;10.080;2023-07-20T09:35:22;100692.22;;;19.27;100.00
16194;BME280;8204;53.582;10.080;2023-07-20T09:37:58;100613.66;;;19.31;100.00
16194;BME280;8204;53.582;10.080;2023-07-20T09:40:25;100447.38;;;19.23;100.00
16194;BME280;8204;53.582;10.080;2023-07-20T09:42:55;100421.75;;;19.11;100.00
16194;BME280;8204;53.582;10.080;2023-07-20T09:45:39;100447.84;;;18.96;100.00
16194;BME280;8204;53.582;10.080;2023-07-20T09:48:06;100456.75;;;18.84;100.00
16194;BME280;8204;53.582;10.080;2023-07-20T09:50:33;100462.56;;;18.74;100.00
16194;BME280;8204;53.582;10.080;2023-07-20T09:53:00;100497.78;;;18.63;100.00
16194;BME280;8204;53.582;10.080;2023-07-20T09:55:28;100499.22;;;18.59;100.00
16194;BME280;8204;53.582;10.080;2023-07-20T09:57:54;100505.16;;;18.55;100.00
16194;BME280;8204;53.582;10.080;2023-07-20T10:00:21;100501.72;;;18.54;100.00
16194;BME280;8204;53.582;10.080;2023-07-20T10:02:48;100491.25;;;18.59;100.00
16194;BME280;8204;53.582;10.080;2023-07-20T10:05:16;100525.94;;;18.64;100.00
16194;BME280;8204;53.582;10.080;2023-07-20T10:07:47;100527.13;;;18.68;100.00
16194;BME280;8204;53.582;10.080;2023-07-20T10:10:15;100612.09;;;18.68;100.00
16194;BME280;8204;53.582;10.080;2023-07-20T10:12:42;100637.78;;;18.74;100.00
16194;BME280;8204;53.582;10.080;2023-07-20T10:15:13;100624.47;;;18.81;100.00
16194;BME280;8204;53.582;10.080;2023-07-20T10:17:49;100664.03;;;18.89;100.00
16194;BME280;8204;53.582;10.080;2023-07-20T10:20:19;100641.13;;;18.94;100.00
16194;BME280;8204;53.582;10.080;2023-07-20T10:22:48;100670.50;;;18.99;100.00
16194;BME280;8204;53.582;10.080;2023-07-20T10:25:15;100633.84;;;19.07;100.00
16194;BME280;8204;53.582;10.080;2023-07-20T10:27:42;100642.44;;;19.16;100.00
16194;BME280;8204;53.582;10.080;2023-07-20T10:30:08;100653.97;;;19.28;100.00
16194;BME280;8204;53.582;10.080;2023-07-20T10:32:34;100687.16;;;19.43;100.00
16194;BME280;8204;53.582;10.080;2023-07-20T10:35:01;100756.19;;;19.56;100.00
16194;BME280;8204;53.582;10.080;2023-07-20T10:37:46;100842.56;;;19.72;100.00
16194;BME280;8204;53.582;10.080;2023-07-20T10:43:00;100894.59;;;19.98;100.00
16194;BME280;8204;53.582;10.080;2023-07-20T10:45:47;100794.53;;;19.97;100.00
16194;BME280;8204;53.582;10.080;2023-07-20T10:50:41;100860.25;;;19.60;100.00
16194;BME280;8204;53.582;10.080;2023-07-20T10:53:14;100821.84;;;19.56;100.00
16194;BME280;8204;53.582;10.080;2023-07-20T10:55:41;100865.56;;;19.60;100.00
16194;BME280;8204;53.582;10.080;2023-07-20T10:58:15;100896.84;;;19.64;100.00
16194;BME280;8204;53.582;10.080;2023-07-20T11:01:03;100921.34;;;19.73;100.00
16194;BME280;8204;53.582;10.080;2023-07-20T11:03:34;100929.22;;;19.85;100.00
16194;BME280;8204;53.582;10.080;2023-07-20T11:08:55;100139.72;;;19.55;100.00
16194;BME280;8204;53.582;10.080;2023-07-20T11:11:22;100247.66;;;19.15;100.00
16194;BME280;8204;53.582;10.080;2023-07-20T11:13:59;100205.84;;;18.93;100.00
16194;BME280;8204;53.582;10.080;2023-07-20T11:19:02;100007.47;;;18.82;100.00
16194;BME280;8204;53.582;10.080;2023-07-20T11:21:30;100018.91;;;18.82;100.00
16194;BME280;8204;53.582;10.080;2023-07-20T11:24:03;100050.16;;;18.69;100.00
16194;BME280;8204;53.582;10.080;2023-07-20T11:26:29;100076.88;;;18.56;100.00
16194;BME280;8204;53.582;10.080;2023-07-20T11:28:54;100145.84;;;18.44;100.00
16194;BME280;8204;53.582;10.080;2023-07-20T11:31:20;100240.44;;;18.32;100.00
16194;BME280;8204;53.582;10.080;2023-07-20T11:33:46;100224.38;;;18.28;100.00
16194;BME280;8204;53.582;10.080;2023-07-20T11:36:12;100129.50;;;18.30;100.00
16194;BME280;8204;53.582;10.080;2023-07-20T11:38:41;100160.00;;;18.38;100.00
16194;BME280;8204;53.582;10.080;2023-07-20T11:41:08;100235.91;;;18.57;100.00
16194;BME280;8204;53.582;10.080;2023-07-20T11:43:34;100543.28;;;18.67;100.00
16194;BME280;8204;53.582;10.080;2023-07-20T11:46:04;100608.56;;;18.74;100.00
16194;BME280;8204;53.582;10.080;2023-07-20T11:48:30;100640.19;;;18.82;100.00
16194;BME280;8204;53.582;10.080;2023-07-20T11:50:55;100697.75;;;18.88;100.00
16194;BME280;8204;53.582;10.080;2023-07-20T11:53:21;100700.56;;;18.93;100.00
16194;BME280;8204;53.582;10.080;2023-07-20T11:55:46;100702.75;;;19.09;100.00
16194;BME280;8204;53.582;10.080;2023-07-20T11:58:12;100720.81;;;19.25;100.00
16194;BME280;8204;53.582;10.080;2023-07-20T12:00:38;100732.13;;;19.45;100.00
16194;BME280;8204;53.582;10.080;2023-07-20T12:03:06;100815.66;;;19.62;100.00
16194;BME280;8204;53.582;10.080;2023-07-20T12:05:37;100841.56;;;19.73;100.00
16194;BME280;8204;53.582;10.080;2023-07-20T12:08:03;100856.16;;;19.88;100.00
16194;BME280;8204;53.582;10.080;2023-07-20T12:10:29;100848.72;;;20.03;100.00
16194;BME280;8204;53.582;10.080;2023-07-20T12:13:02;100876.19;;;20.21;100.00
16194;BME280;8204;53.582;10.080;2023-07-20T12:15:30;100900.00;;;20.41;100.00
16194;BME280;8204;53.582;10.080;2023-07-20T12:18:01;100909.06;;;20.57;100.00
16194;BME280;8204;53.582;10.080;2023-07-20T12:20:35;100866.69;;;20.74;100.00
16194;BME280;8204;53.582;10.080;2023-07-20T12:23:04;100839.38;;;20.85;100.00
16194;BME280;8204;53.582;10.080;2023-07-20T12:25:42;100835.16;;;20.95;100.00
16194;BME280;8204;53.582;10.080;2023-07-20T12:28:09;100861.09;;;21.00;100.00
16194;BME280;8204;53.582;10.080;2023-07-20T12:30:36;100878.94;;;20.99;100.00
16194;BME280;8204;53.582;10.080;2023-07-20T12:33:02;100883.91;;;20.96;100.00
16194;BME280;8204;53.582;10.080;2023-07-20T12:35:28;100864.09;;;20.92;100.00
16194;BME280;8204;53.582;10.080;2023-07-20T12:37:55;100848.75;;;20.87;100.00
16194;BME280;8204;53.582;10.080;2023-07-20T12:40:21;100844.22;;;20.88;100.00
16194;BME280;8204;53.582;10.080;2023-07-20T12:42:47;100846.91;;;20.88;100.00
16194;BME280;8204;53.582;10.080;2023-07-20T12:45:13;100840.69;;;20.94;100.00
16194;BME280;8204;53.582;10.080;2023-07-20T12:47:39;100845.81;;;20.95;100.00
16194;BME280;8204;53.582;10.080;2023-07-20T12:50:05;100818.47;;;21.00;100.00
16194;BME280;8204;53.582;10.080;2023-07-20T12:52:31;100766.97;;;21.06;100.00
16194;BME280;8204;53.582;10.080;2023-07-20T12:54:57;100795.56;;;21.10;100.00